Wetterstation Vordersexau
Wetterdaten: Woche 04.04.16 - 10.04.16 (KW14)
Datum Zeit Temp. A. Feuchte A. Luftdruck Regen Wind Richtung Taupunkt Windchill Windben
04.04.2016 00:00 11,2 C 86 % 1007,0 hPa 0,0 l/m 0,0 km/h NW 8,9 C 11,2 C 0,0 km/h
04.04.2016 01:00 11,3 C 86 % 1007,0 hPa 0,0 l/m 0,0 km/h NW 9,0 C 11,3 C 0,0 km/h
04.04.2016 02:00 11,2 C 87 % 1006,6 hPa 0,0 l/m 0,0 km/h NW 9,1 C 11,2 C 0,0 km/h
04.04.2016 03:00 10,9 C 87 % 1006,1 hPa 0,0 l/m 0,0 km/h SW 8,8 C 10,9 C 0,0 km/h
04.04.2016 04:00 11,2 C 87 % 1006,1 hPa 0,0 l/m 0,0 km/h SW 9,1 C 11,2 C 0,0 km/h
04.04.2016 05:00 10,5 C 87 % 1006,2 hPa 0,0 l/m 0,0 km/h SW 8,4 C 10,5 C 0,0 km/h
04.04.2016 06:00 10,1 C 87 % 1006,5 hPa 0,0 l/m 0,0 km/h S-SW 8,0 C 10,1 C 0,0 km/h
04.04.2016 07:00 9,9 C 87 % 1006,8 hPa 0,0 l/m 0,0 km/h SW 7,8 C 9,9 C 0,0 km/h
04.04.2016 08:00 11,8 C 86 % 1007,6 hPa 0,0 l/m 0,0 km/h S-SW 9,5 C 11,8 C 0,0 km/h
04.04.2016 09:00 12,1 C 87 % 1008,4 hPa 0,0 l/m 0,0 km/h S-SO 10,0 C 12,1 C 0,0 km/h
04.04.2016 10:00 12,5 C 86 % 1008,0 hPa 0,8 l/m 0,0 km/h SW 10,2 C 12,5 C 0,0 km/h
04.04.2016 11:00 15,2 C 84 % 1008,1 hPa 0,0 l/m 0,0 km/h S-SW 12,5 C 15,2 C 0,0 km/h
04.04.2016 12:00 17,4 C 69 % 1007,7 hPa 0,0 l/m 9,1 km/h W 11,7 C 16,1 C 5,0 km/h
04.04.2016 13:00 18,2 C 64 % 1007,2 hPa 0,0 l/m 0,0 km/h NO 11,3 C 18,2 C 0,0 km/h
04.04.2016 14:00 19,8 C 58 % 1006,7 hPa 0,0 l/m 0,0 km/h S-SW 11,3 C 19,8 C 0,0 km/h
04.04.2016 15:00 19,3 C 57 % 1006,0 hPa 0,0 l/m 0,0 km/h N-NO 10,6 C 19,3 C 0,0 km/h
04.04.2016 16:00 18,8 C 60 % 1005,2 hPa 0,0 l/m 0,0 km/h NO 10,9 C 18,8 C 0,0 km/h
04.04.2016 17:00 17,9 C 61 % 1004,9 hPa 0,0 l/m 0,0 km/h N-NO 10,3 C 17,9 C 0,0 km/h
04.04.2016 18:00 16,8 C 64 % 1004,6 hPa 0,0 l/m 0,0 km/h N-NO 10,0 C 16,8 C 0,0 km/h
04.04.2016 19:00 14,9 C 69 % 1005,0 hPa 0,0 l/m 0,0 km/h N-NO 9,3 C 14,9 C 0,0 km/h
04.04.2016 20:00 13,3 C 76 % 1005,2 hPa 0,0 l/m 0,0 km/h N-NO 9,2 C 13,3 C 0,0 km/h
04.04.2016 21:00 11,9 C 80 % 1004,6 hPa 0,0 l/m 0,0 km/h NO 8,6 C 11,9 C 0,0 km/h
04.04.2016 22:00 11,3 C 83 % 1003,8 hPa 0,0 l/m 0,0 km/h O-NO 8,5 C 11,3 C 0,0 km/h
04.04.2016 23:00 9,8 C 85 % 1003,2 hPa 0,0 l/m 0,0 km/h O-SO 7,4 C 9,8 C 0,0 km/h
05.04.2016 00:00 8,9 C 86 % 1002,8 hPa 0,0 l/m 0,0 km/h O-SO 6,7 C 8,9 C 0,0 km/h
05.04.2016 01:00 8,9 C 87 % 1002,9 hPa 0,0 l/m 0,0 km/h W 6,9 C 8,9 C 0,0 km/h
05.04.2016 02:00 9,7 C 87 % 1003,4 hPa 0,0 l/m 0,0 km/h W 7,6 C 9,7 C 0,0 km/h
05.04.2016 03:00 9,9 C 87 % 1003,8 hPa 0,0 l/m 0,0 km/h W 7,8 C 9,9 C 0,0 km/h
05.04.2016 04:00 9,8 C 87 % 1004,4 hPa 0,0 l/m 0,0 km/h S 7,7 C 9,8 C 0,0 km/h
05.04.2016 05:00 9,1 C 87 % 1004,0 hPa 0,0 l/m 0,0 km/h S-SO 7,1 C 9,1 C 0,0 km/h
05.04.2016 06:00 9,3 C 87 % 1003,9 hPa 0,0 l/m 0,0 km/h SO 7,2 C 9,3 C 0,0 km/h
05.04.2016 07:00 9,3 C 87 % 1004,4 hPa 0,0 l/m 0,0 km/h O-SO 7,2 C 9,3 C 0,0 km/h
05.04.2016 08:00 11,4 C 86 % 1004,5 hPa 0,0 l/m 0,0 km/h W 9,1 C 11,4 C 0,0 km/h
05.04.2016 09:00 12,2 C 87 % 1005,7 hPa 0,0 l/m 0,0 km/h W 10,1 C 12,2 C 0,0 km/h
05.04.2016 10:00 13,6 C 85 % 1006,3 hPa 0,0 l/m 3,9 km/h O-SO 11,1 C 13,6 C 2,2 km/h
05.04.2016 11:00 15,8 C 81 % 1006,5 hPa 0,0 l/m 0,0 km/h W-SW 12,5 C 15,8 C 0,0 km/h
05.04.2016 12:00 15,9 C 79 % 1006,8 hPa 0,0 l/m 0,6 km/h NW 12,3 C 15,9 C 0,4 km/h
05.04.2016 13:00 15,3 C 78 % 1007,2 hPa 0,0 l/m 0,0 km/h S-SW 11,5 C 15,3 C 0,0 km/h
05.04.2016 14:00 14,3 C 75 % 1007,5 hPa 0,0 l/m 19,4 km/h W-SW 9,9 C 9,0 C 10,8 km/h
05.04.2016 15:00 13,6 C 82 % 1007,6 hPa 0,0 l/m 0,0 km/h SW 10,6 C 13,6 C 0,0 km/h
05.04.2016 16:00 12,8 C 85 % 1008,1 hPa 0,8 l/m 0,0 km/h S 10,3 C 12,8 C 0,0 km/h
05.04.2016 17:00 12,2 C 86 % 1008,0 hPa 0,8 l/m 18,1 km/h S-SO 9,9 C 6,7 C 10,1 km/h
05.04.2016 18:00 11,3 C 87 % 1008,5 hPa 0,8 l/m 0,0 km/h S-SO 9,2 C 11,3 C 0,0 km/h
05.04.2016 19:00 11,1 C 86 % 1008,8 hPa 0,8 l/m 0,0 km/h NW 8,8 C 11,1 C 0,0 km/h
05.04.2016 20:00 10,4 C 86 % 1010,1 hPa 3,7 l/m 0,0 km/h NW 8,2 C 10,4 C 0,0 km/h
05.04.2016 21:00 9,6 C 87 % 1010,9 hPa 1,7 l/m 0,0 km/h S-SO 7,5 C 9,6 C 0,0 km/h
05.04.2016 22:00 9,6 C 86 % 1011,5 hPa 0,8 l/m 0,0 km/h S-SO 7,4 C 9,6 C 0,0 km/h
05.04.2016 23:00 9,6 C 86 % 1011,8 hPa 0,8 l/m 0,0 km/h S-SO 7,4 C 9,6 C 0,0 km/h
06.04.2016 00:00 9,7 C 85 % 1012,3 hPa 0,4 l/m 0,0 km/h S-SO 7,3 C 9,7 C 0,0 km/h
06.04.2016 01:00 9,5 C 84 % 1012,3 hPa 0,4 l/m 0,0 km/h S 6,9 C 9,5 C 0,0 km/h
06.04.2016 02:00 8,8 C 84 % 1012,2 hPa 0,0 l/m 0,0 km/h S 6,2 C 8,8 C 0,0 km/h
06.04.2016 03:00 8,8 C 84 % 1012,3 hPa 0,0 l/m 0,0 km/h S-SO 6,2 C 8,8 C 0,0 km/h
06.04.2016 04:00 7,6 C 85 % 1012,3 hPa 0,0 l/m 0,0 km/h NO 5,2 C 7,6 C 0,0 km/h
06.04.2016 05:00 7,4 C 84 % 1012,5 hPa 0,0 l/m 0,0 km/h SO 4,9 C 7,4 C 0,0 km/h
06.04.2016 06:00 7,9 C 83 % 1012,6 hPa 0,0 l/m 0,0 km/h SO 5,2 C 7,9 C 0,0 km/h
06.04.2016 07:00 8,4 C 82 % 1012,8 hPa 0,4 l/m 0,0 km/h SO 5,5 C 8,4 C 0,0 km/h
06.04.2016 08:00 9,9 C 80 % 1013,1 hPa 0,0 l/m 0,0 km/h W 6,6 C 9,9 C 0,0 km/h
06.04.2016 09:00 15,5 C 86 % 1013,4 hPa 0,0 l/m 11,7 km/h W 13,2 C 13,0 C 6,5 km/h
06.04.2016 10:00 15,3 C 77 % 1013,6 hPa 0,0 l/m 9,7 km/h W-SW 11,3 C 13,6 C 5,4 km/h
06.04.2016 11:00 15,0 C 74 % 1013,4 hPa 0,0 l/m 16,2 km/h W 10,4 C 10,8 C 9,0 km/h
06.04.2016 12:00 17,9 C 65 % 1012,8 hPa 0,0 l/m 8,4 km/h W-SW 11,2 C 17,0 C 4,7 km/h
06.04.2016 13:00 18,9 C 58 % 1012,3 hPa 0,0 l/m 16,2 km/h SW 10,5 C 15,6 C 9,0 km/h
06.04.2016 14:00 18,9 C 50 % 1011,8 hPa 0,0 l/m 24,0 km/h N-NW 8,2 C 14,1 C 13,3 km/h
06.04.2016 15:00 17,3 C 49 % 1011,0 hPa 0,0 l/m 29,8 km/h W-NW 6,5 C 11,0 C 16,6 km/h
06.04.2016 16:00 20,4 C 45 % 1010,6 hPa 0,0 l/m 21,4 km/h W 8,1 C 16,5 C 11,9 km/h
06.04.2016 17:00 20,4 C 45 % 1010,0 hPa 0,0 l/m 22,0 km/h W-NW 8,1 C 16,4 C 12,2 km/h
06.04.2016 18:00 19,5 C 44 % 1009,8 hPa 0,0 l/m 21,4 km/h W 6,9 C 15,3 C 11,9 km/h
06.04.2016 19:00 16,1 C 49 % 1009,7 hPa 0,0 l/m 9,1 km/h W 5,4 C 14,7 C 5,0 km/h
06.04.2016 20:00 11,3 C 62 % 1010,1 hPa 0,0 l/m 0,0 km/h W 4,3 C 11,3 C 0,0 km/h
06.04.2016 21:00 8,7 C 68 % 1010,4 hPa 0,0 l/m 0,0 km/h NW 3,1 C 8,7 C 0,0 km/h
06.04.2016 22:00 7,8 C 77 % 1010,3 hPa 0,0 l/m 0,0 km/h NW 4,0 C 7,8 C 0,0 km/h
06.04.2016 23:00 7,1 C 82 % 1010,2 hPa 0,0 l/m 0,0 km/h W-SW 4,2 C 7,1 C 0,0 km/h
07.04.2016 00:00 10,6 C 75 % 1010,4 hPa 0,0 l/m 3,9 km/h SW 6,4 C 10,6 C 2,2 km/h
07.04.2016 01:00 11,2 C 70 % 1010,2 hPa 0,0 l/m 13,0 km/h W-SW 5,9 C 7,4 C 7,2 km/h
07.04.2016 02:00 10,4 C 70 % 1009,6 hPa 0,0 l/m 10,4 km/h SW 5,2 C 7,8 C 5,8 km/h
07.04.2016 03:00 10,4 C 69 % 1009,3 hPa 0,0 l/m 35,0 km/h SW 5,0 C 0,3 C 19,4 km/h
07.04.2016 04:00 10,3 C 70 % 1009,0 hPa 0,0 l/m 19,4 km/h SW 5,1 C 3,9 C 10,8 km/h
07.04.2016 05:00 10,1 C 71 % 1009,0 hPa 0,0 l/m 35,0 km/h W 5,1 C -0,2 C 19,4 km/h
07.04.2016 06:00 9,8 C 73 % 1009,7 hPa 0,0 l/m 11,0 km/h N-NW 5,2 C 6,8 C 6,1 km/h
07.04.2016 07:00 8,4 C 80 % 1010,4 hPa 0,0 l/m 0,0 km/h N 5,2 C 8,4 C 0,0 km/h
07.04.2016 08:00 8,1 C 81 % 1010,6 hPa 0,0 l/m 0,0 km/h N 5,0 C 8,1 C 0,0 km/h
07.04.2016 09:00 8,4 C 82 % 1010,6 hPa 0,0 l/m 0,0 km/h S-SO 5,5 C 8,4 C 0,0 km/h
07.04.2016 10:00 8,9 C 82 % 1011,5 hPa 0,0 l/m 0,0 km/h S-SO 6,0 C 8,9 C 0,0 km/h
07.04.2016 11:00 9,1 C 81 % 1011,6 hPa 0,0 l/m 20,1 km/h W 6,0 C 2,1 C 11,2 km/h
07.04.2016 12:00 10,1 C 79 % 1011,4 hPa 0,0 l/m 0,0 km/h S-SW 6,6 C 10,1 C 0,0 km/h
07.04.2016 13:00 9,2 C 81 % 1011,2 hPa 0,0 l/m 9,1 km/h W-NW 6,1 C 7,3 C 5,0 km/h
07.04.2016 14:00 8,4 C 83 % 1011,2 hPa 0,4 l/m 1,3 km/h SO 5,7 C 8,4 C 0,7 km/h
07.04.2016 15:00 9,9 C 76 % 1010,8 hPa 0,0 l/m 8,4 km/h S-SO 5,9 C 8,5 C 4,7 km/h
07.04.2016 16:00 12,2 C 71 % 1010,2 hPa 0,0 l/m 0,0 km/h SO 7,1 C 12,2 C 0,0 km/h
07.04.2016 17:00 11,4 C 68 % 1010,4 hPa 0,0 l/m 0,0 km/h O-NO 5,7 C 11,4 C 0,0 km/h
07.04.2016 18:00 9,6 C 70 % 1010,3 hPa 0,0 l/m 0,0 km/h SO 4,4 C 9,6 C 0,0 km/h
07.04.2016 19:00 8,7 C 74 % 1010,4 hPa 0,0 l/m 0,0 km/h SO 4,3 C 8,7 C 0,0 km/h
07.04.2016 20:00 7,3 C 78 % 1010,9 hPa 0,0 l/m 0,0 km/h SO 3,7 C 7,3 C 0,0 km/h
07.04.2016 21:00 6,7 C 81 % 1011,2 hPa 0,0 l/m 0,0 km/h SO 3,7 C 6,7 C 0,0 km/h
07.04.2016 22:00 6,5 C 83 % 1011,1 hPa 0,0 l/m 0,0 km/h SO 3,8 C 6,5 C 0,0 km/h
07.04.2016 23:00 6,4 C 84 % 1011,6 hPa 0,0 l/m 0,0 km/h O-SO 3,9 C 6,4 C 0,0 km/h
08.04.2016 00:00 6,3 C 85 % 1011,6 hPa 0,0 l/m 0,0 km/h O-SO 4,0 C 6,3 C 0,0 km/h
08.04.2016 01:00 6,2 C 86 % 1011,5 hPa 0,0 l/m 0,0 km/h SO 4,0 C 6,2 C 0,0 km/h
08.04.2016 02:00 4,6 C 86 % 1011,1 hPa 0,0 l/m 0,0 km/h SO 2,5 C 4,6 C 0,0 km/h
08.04.2016 03:00 3,3 C 87 % 1010,9 hPa 0,0 l/m 0,0 km/h SO 1,3 C 3,3 C 0,0 km/h
08.04.2016 04:00 2,9 C 87 % 1010,8 hPa 0,0 l/m 0,0 km/h SO 1,0 C 2,9 C 0,0 km/h
08.04.2016 05:00 2,8 C 87 % 1010,3 hPa 0,0 l/m 0,0 km/h O-SO 0,9 C 2,8 C 0,0 km/h
08.04.2016 06:00 3,1 C 87 % 1010,4 hPa 0,0 l/m 0,0 km/h O-SO 1,2 C 3,1 C 0,0 km/h
08.04.2016 07:00 3,5 C 87 % 1010,5 hPa 0,0 l/m 0,0 km/h O-SO 1,5 C 3,5 C 0,0 km/h
08.04.2016 08:00 5,1 C 87 % 1010,7 hPa 0,0 l/m 0,0 km/h O-SO 3,1 C 5,1 C 0,0 km/h
08.04.2016 09:00 7,8 C 87 % 1010,5 hPa 0,0 l/m 0,0 km/h N-NO 5,8 C 7,8 C 0,0 km/h
08.04.2016 10:00 15,4 C 65 % 1010,2 hPa 0,0 l/m 5,8 km/h N-NW 8,9 C 15,4 C 3,2 km/h
08.04.2016 11:00 14,6 C 56 % 1009,9 hPa 0,0 l/m 6,5 km/h N-NO 5,9 C 14,6 C 3,6 km/h
08.04.2016 12:00 11,9 C 58 % 1009,6 hPa 0,0 l/m 0,0 km/h N-NO 3,9 C 11,9 C 0,0 km/h
08.04.2016 13:00 13,4 C 53 % 1008,9 hPa 0,0 l/m 0,0 km/h N-NO 4,0 C 13,4 C 0,0 km/h
08.04.2016 14:00 14,9 C 48 % 1008,6 hPa 0,0 l/m 0,0 km/h N-NW 4,0 C 14,9 C 0,0 km/h
08.04.2016 15:00 13,2 C 51 % 1008,1 hPa 0,0 l/m 0,0 km/h O 3,3 C 13,2 C 0,0 km/h
08.04.2016 16:00 13,1 C 51 % 1007,7 hPa 0,0 l/m 0,0 km/h O 3,2 C 13,1 C 0,0 km/h
08.04.2016 17:00 13,6 C 53 % 1007,4 hPa 0,0 l/m 0,0 km/h SO 4,2 C 13,6 C 0,0 km/h
08.04.2016 18:00 16,9 C 45 % 1007,0 hPa 0,0 l/m 0,0 km/h O-SO 4,9 C 16,9 C 0,0 km/h
08.04.2016 19:00 13,5 C 49 % 1007,3 hPa 0,0 l/m 0,0 km/h O-NO 3,0 C 13,5 C 0,0 km/h
08.04.2016 20:00 8,8 C 60 % 1007,8 hPa 0,0 l/m 0,0 km/h O-SO 1,5 C 8,8 C 0,0 km/h
08.04.2016 21:00 8,1 C 67 % 1007,9 hPa 0,0 l/m 0,0 km/h O-SO 2,3 C 8,1 C 0,0 km/h
08.04.2016 22:00 7,6 C 73 % 1007,8 hPa 0,0 l/m 0,0 km/h O-SO 3,1 C 7,6 C 0,0 km/h
08.04.2016 23:00 7,1 C 75 % 1007,4 hPa 0,0 l/m 0,0 km/h SO 3,0 C 7,1 C 0,0 km/h
09.04.2016 00:00 6,1 C 77 % 1007,4 hPa 0,0 l/m 0,0 km/h SO 2,4 C 6,1 C 0,0 km/h
09.04.2016 01:00 5,4 C 81 % 1007,2 hPa 0,0 l/m 5,8 km/h SO 2,4 C 5,4 C 3,2 km/h
09.04.2016 02:00 4,9 C 82 % 1006,8 hPa 0,0 l/m 0,0 km/h O-NO 2,1 C 4,9 C 0,0 km/h
09.04.2016 03:00 4,8 C 83 % 1006,5 hPa 0,0 l/m 0,0 km/h NO 2,2 C 4,8 C 0,0 km/h
09.04.2016 04:00 5,1 C 83 % 1006,4 hPa 0,0 l/m 0,0 km/h SO 2,5 C 5,1 C 0,0 km/h
09.04.2016 05:00 5,1 C 83 % 1006,1 hPa 0,0 l/m 0,0 km/h SO 2,5 C 5,1 C 0,0 km/h
09.04.2016 06:00 5,1 C 84 % 1005,8 hPa 0,0 l/m 0,0 km/h SO 2,6 C 5,1 C 0,0 km/h
09.04.2016 07:00 5,2 C 84 % 1005,8 hPa 0,0 l/m 0,0 km/h SO 2,7 C 5,2 C 0,0 km/h
09.04.2016 08:00 5,9 C 84 % 1005,8 hPa 0,0 l/m 0,0 km/h O-NO 3,4 C 5,9 C 0,0 km/h
09.04.2016 09:00 6,6 C 84 % 1005,8 hPa 0,0 l/m 0,0 km/h W-NW 4,1 C 6,6 C 0,0 km/h
09.04.2016 10:00 8,1 C 82 % 1005,8 hPa 0,0 l/m 0,0 km/h W 5,2 C 8,1 C 0,0 km/h
09.04.2016 11:00 10,8 C 73 % 1005,6 hPa 0,0 l/m 1,9 km/h W-NW 6,2 C 10,8 C 1,1 km/h
09.04.2016 12:00 11,9 C 64 % 1005,3 hPa 0,0 l/m 15,6 km/h W-NW 5,3 C 7,2 C 8,6 km/h
09.04.2016 13:00 11,1 C 64 % 1005,3 hPa 0,0 l/m 0,0 km/h S-SW 4,6 C 11,1 C 0,0 km/h
09.04.2016 14:00 10,5 C 68 % 1005,1 hPa 0,0 l/m 0,0 km/h S 4,8 C 10,5 C 0,0 km/h
09.04.2016 15:00 11,2 C 68 % 1005,4 hPa 0,0 l/m 0,0 km/h S 5,5 C 11,2 C 0,0 km/h
09.04.2016 16:00 10,9 C 67 % 1005,3 hPa 0,0 l/m 0,0 km/h S 5,0 C 10,9 C 0,0 km/h
09.04.2016 17:00 11,0 C 68 % 1005,4 hPa 0,0 l/m 0,0 km/h S 5,3 C 11,0 C 0,0 km/h
09.04.2016 18:00 10,0 C 72 % 1005,7 hPa 0,0 l/m 0,0 km/h S 5,2 C 10,0 C 0,0 km/h
09.04.2016 19:00 9,3 C 73 % 1005,8 hPa 0,0 l/m 0,0 km/h S 4,7 C 9,3 C 0,0 km/h
09.04.2016 20:00 8,4 C 76 % 1006,4 hPa 0,0 l/m 0,0 km/h S 4,4 C 8,4 C 0,0 km/h
09.04.2016 21:00 8,1 C 78 % 1007,0 hPa 0,0 l/m 0,0 km/h S 4,5 C 8,1 C 0,0 km/h
09.04.2016 22:00 7,8 C 80 % 1007,4 hPa 0,0 l/m 0,0 km/h S 4,6 C 7,8 C 0,0 km/h
09.04.2016 23:00 7,8 C 81 % 1007,2 hPa 0,0 l/m 0,0 km/h S 4,7 C 7,8 C 0,0 km/h
10.04.2016 00:00 7,6 C 81 % 1007,3 hPa 0,0 l/m 0,0 km/h S-SO 4,6 C 7,6 C 0,0 km/h
10.04.2016 01:00 7,5 C 82 % 1007,4 hPa 0,0 l/m 0,0 km/h S-SO 4,6 C 7,5 C 0,0 km/h
10.04.2016 02:00 7,1 C 82 % 1007,6 hPa 0,0 l/m 0,0 km/h S-SO 4,2 C 7,1 C 0,0 km/h
10.04.2016 03:00 6,8 C 84 % 1007,8 hPa 0,0 l/m 0,0 km/h S-SO 4,3 C 6,8 C 0,0 km/h
10.04.2016 04:00 6,4 C 84 % 1008,0 hPa 0,0 l/m 0,0 km/h S-SO 3,9 C 6,4 C 0,0 km/h
10.04.2016 05:00 6,3 C 84 % 1008,1 hPa 0,0 l/m 0,0 km/h S-SO 3,8 C 6,3 C 0,0 km/h
10.04.2016 06:00 4,7 C 86 % 1008,0 hPa 0,0 l/m 0,0 km/h SO 2,6 C 4,7 C 0,0 km/h
10.04.2016 07:00 4,9 C 87 % 1008,1 hPa 0,0 l/m 0,0 km/h SO 2,9 C 4,9 C 0,0 km/h
10.04.2016 08:00 9,2 C 84 % 1008,2 hPa 0,0 l/m 12,3 km/h W-NW 6,6 C 5,4 C 6,8 km/h
10.04.2016 09:00 15,3 C 64 % 1008,4 hPa 0,0 l/m 0,0 km/h NW 8,5 C 15,3 C 0,0 km/h
10.04.2016 10:00 17,2 C 58 % 1008,2 hPa 0,0 l/m 0,0 km/h W-NW 8,9 C 17,2 C 0,0 km/h
10.04.2016 11:00 17,5 C 56 % 1007,9 hPa 0,0 l/m 23,3 km/h NW 8,6 C 12,3 C 13,0 km/h
10.04.2016 12:00 19,4 C 51 % 1007,5 hPa 0,0 l/m 7,1 km/h W-NW 9,0 C 19,1 C 4,0 km/h
10.04.2016 13:00 21,6 C 46 % 1006,7 hPa 0,0 l/m 0,0 km/h W-NW 9,5 C 21,6 C 0,0 km/h
10.04.2016 14:00 22,8 C 43 % 1006,1 hPa 0,0 l/m 6,5 km/h N-NO 9,6 C 22,8 C 3,6 km/h
10.04.2016 15:00 23,1 C 42 % 1005,6 hPa 0,0 l/m 7,1 km/h N-NO 9,5 C 22,9 C 4,0 km/h
10.04.2016 16:00 25,4 C 36 % 1005,3 hPa 0,0 l/m 0,0 km/h SO 9,2 C 25,4 C 0,0 km/h
10.04.2016 17:00 26,4 C 32 % 1005,1 hPa 0,0 l/m 0,0 km/h SO 8,4 C 26,4 C 0,0 km/h
10.04.2016 18:00 23,2 C 35 % 1005,0 hPa 0,0 l/m 20,7 km/h SO 6,9 C 20,2 C 11,5 km/h
10.04.2016 19:00 18,5 C 41 % 1005,5 hPa 0,0 l/m 18,8 km/h SO 5,0 C 14,5 C 10,4 km/h
10.04.2016 20:00 14,4 C 51 % 1005,9 hPa 0,0 l/m 0,0 km/h O 4,4 C 14,4 C 0,0 km/h
10.04.2016 21:00 10,6 C 62 % 1006,5 hPa 0,0 l/m 0,0 km/h O-SO 3,6 C 10,6 C 0,0 km/h
10.04.2016 22:00 9,6 C 66 % 1006,9 hPa 0,0 l/m 0,0 km/h O 3,6 C 9,6 C 0,0 km/h
10.04.2016 23:00 8,3 C 71 % 1007,2 hPa 0,0 l/m 0,0 km/h SO 3,4 C 8,3 C 0,0 km/h
Min-Datum _ 08.04.16 10.04.16 05.04.16 - 04.04.16 - 08.04.16 07.04.16 04.04.16
_ Min-Zeit 05:41 17:41 00:41 - 00:41 - 05:41 05:41 00:41
Minimum _ 2,8 C 32 % 1002,8 hPa - 0,0 km/h - 0,9 C -0,2 C 0,0 km/h
Max-Datum _ 10.04.16 04.04.16 06.04.16 05.04.16 07.04.16 - 06.04.16 10.04.16 07.04.16
_ Max-Zeit 17:41 02:41 10:41 20:41 03:41 - 09:41 17:41 03:41
Maximum _ 26,4 C 87 % 1013,6 hPa 3,7 l/m 35,0 km/h
SW
- 13,2 C 26,4 C 19,4 km/h
SW
Durchschnitt _ 11,2 C 74 % 1008,2 hPa #12,8 l/m 3,2 km/h SO 6,3 C 10,5 C 1,8 km/h
www.sexauwetter.de